sensor_id;sensor_type;location;lat;lon;timestamp;temperature;humidity
11536;DHT22;5824;49.336;8.652;2022-12-04T00:01:14;4.40;1.00
11536;DHT22;5824;49.336;8.652;2022-12-04T00:03:40;4.40;1.00
11536;DHT22;5824;49.336;8.652;2022-12-04T00:06:17;4.40;1.00
11536;DHT22;5824;49.336;8.652;2022-12-04T00:08:45;4.40;1.00
11536;DHT22;5824;49.336;8.652;2022-12-04T00:11:13;4.40;1.00
11536;DHT22;5824;49.336;8.652;2022-12-04T00:13:39;4.40;1.00
11536;DHT22;5824;49.336;8.652;2022-12-04T00:16:07;4.40;1.00
11536;DHT22;5824;49.336;8.652;2022-12-04T00:18:33;4.30;1.00
11536;DHT22;5824;49.336;8.652;2022-12-04T00:21:01;4.30;1.00
11536;DHT22;5824;49.336;8.652;2022-12-04T00:23:27;4.20;1.00
11536;DHT22;5824;49.336;8.652;2022-12-04T00:25:59;4.20;1.00
11536;DHT22;5824;49.336;8.652;2022-12-04T00:28:24;4.30;1.00
11536;DHT22;5824;49.336;8.652;2022-12-04T00:30:50;4.20;1.00
11536;DHT22;5824;49.336;8.652;2022-12-04T00:33:15;4.20;1.00
11536;DHT22;5824;49.336;8.652;2022-12-04T00:35:41;4.20;1.00
11536;DHT22;5824;49.336;8.652;2022-12-04T00:38:06;4.20;1.00
11536;DHT22;5824;49.336;8.652;2022-12-04T00:40:32;4.20;1.00
11536;DHT22;5824;49.336;8.652;2022-12-04T00:42:57;4.20;1.00
11536;DHT22;5824;49.336;8.652;2022-12-04T00:45:23;4.20;1.00
11536;DHT22;5824;49.336;8.652;2022-12-04T00:47:49;4.10;1.00
11536;DHT22;5824;49.336;8.652;2022-12-04T00:50:14;4.10;1.00
11536;DHT22;5824;49.336;8.652;2022-12-04T00:52:39;4.10;1.00
11536;DHT22;5824;49.336;8.652;2022-12-04T00:55:05;4.20;1.00
11536;DHT22;5824;49.336;8.652;2022-12-04T00:57:31;4.30;1.00
11536;DHT22;5824;49.336;8.652;2022-12-04T00:59:57;4.30;1.00
11536;DHT22;5824;49.336;8.652;2022-12-04T01:02:22;4.30;1.00
11536;DHT22;5824;49.336;8.652;2022-12-04T01:04:48;4.30;1.00
11536;DHT22;5824;49.336;8.652;2022-12-04T01:07:13;4.20;1.00
11536;DHT22;5824;49.336;8.652;2022-12-04T01:09:39;4.20;1.00
11536;DHT22;5824;49.336;8.652;2022-12-04T01:14:30;4.20;1.00
11536;DHT22;5824;49.336;8.652;2022-12-04T01:16:56;4.10;1.00
11536;DHT22;5824;49.336;8.652;2022-12-04T01:19:21;4.20;1.00
11536;DHT22;5824;49.336;8.652;2022-12-04T01:21:47;4.20;1.00
11536;DHT22;5824;49.336;8.652;2022-12-04T01:24:12;4.30;1.00
11536;DHT22;5824;49.336;8.652;2022-12-04T01:26:38;4.20;1.00
11536;DHT22;5824;49.336;8.652;2022-12-04T01:29:03;4.20;1.00
11536;DHT22;5824;49.336;8.652;2022-12-04T01:31:29;4.20;1.00
11536;DHT22;5824;49.336;8.652;2022-12-04T01:33:54;4.20;1.00
11536;DHT22;5824;49.336;8.652;2022-12-04T01:36:23;4.20;1.00
11536;DHT22;5824;49.336;8.652;2022-12-04T01:38:53;4.20;1.00
11536;DHT22;5824;49.336;8.652;2022-12-04T01:41:22;4.30;1.00
11536;DHT22;5824;49.336;8.652;2022-12-04T01:44:15;4.30;1.00
11536;DHT22;5824;49.336;8.652;2022-12-04T01:46:43;4.30;1.00
11536;DHT22;5824;49.336;8.652;2022-12-04T01:49:13;4.30;1.00
11536;DHT22;5824;49.336;8.652;2022-12-04T01:51:43;4.40;1.00
11536;DHT22;5824;49.336;8.652;2022-12-04T01:54:16;4.40;1.00
11536;DHT22;5824;49.336;8.652;2022-12-04T01:56:51;4.30;1.00
11536;DHT22;5824;49.336;8.652;2022-12-04T01:59:22;4.30;1.00
11536;DHT22;5824;49.336;8.652;2022-12-04T02:02:09;4.40;1.00
11536;DHT22;5824;49.336;8.652;2022-12-04T02:04:38;4.30;1.00
11536;DHT22;5824;49.336;8.652;2022-12-04T02:07:04;4.30;1.00
11536;DHT22;5824;49.336;8.652;2022-12-04T02:09:30;4.30;1.00
11536;DHT22;5824;49.336;8.652;2022-12-04T02:12:28;4.30;1.00
11536;DHT22;5824;49.336;8.652;2022-12-04T02:23:10;4.40;1.00
11536;DHT22;5824;49.336;8.652;2022-12-04T02:28:52;4.40;1.00
11536;DHT22;5824;49.336;8.652;2022-12-04T02:31:43;4.40;1.00
11536;DHT22;5824;49.336;8.652;2022-12-04T02:34:17;4.40;1.00
11536;DHT22;5824;49.336;8.652;2022-12-04T02:36:59;4.40;1.00
11536;DHT22;5824;49.336;8.652;2022-12-04T02:39:39;4.50;1.00
11536;DHT22;5824;49.336;8.652;2022-12-04T02:42:15;4.50;1.00
11536;DHT22;5824;49.336;8.652;2022-12-04T02:44:55;4.60;1.00
11536;DHT22;5824;49.336;8.652;2022-12-04T02:47:23;4.60;1.00
11536;DHT22;5824;49.336;8.652;2022-12-04T02:49:54;4.60;1.00
11536;DHT22;5824;49.336;8.652;2022-12-04T02:52:27;4.60;1.00
11536;DHT22;5824;49.336;8.652;2022-12-04T02:54:58;4.70;1.00
11536;DHT22;5824;49.336;8.652;2022-12-04T02:57:29;4.70;1.00
11536;DHT22;5824;49.336;8.652;2022-12-04T02:59:56;4.70;1.00
11536;DHT22;5824;49.336;8.652;2022-12-04T03:02:53;4.70;1.00
11536;DHT22;5824;49.336;8.652;2022-12-04T03:05:25;4.80;1.00
11536;DHT22;5824;49.336;8.652;2022-12-04T03:07:54;4.70;1.00
11536;DHT22;5824;49.336;8.652;2022-12-04T03:10:27;4.60;1.00
11536;DHT22;5824;49.336;8.652;2022-12-04T03:12:58;4.60;1.00
11536;DHT22;5824;49.336;8.652;2022-12-04T03:15:33;4.60;1.00
11536;DHT22;5824;49.336;8.652;2022-12-04T03:18:25;4.70;1.00
11536;DHT22;5824;49.336;8.652;2022-12-04T03:21:00;4.80;1.00
11536;DHT22;5824;49.336;8.652;2022-12-04T03:23:34;4.80;1.00
11536;DHT22;5824;49.336;8.652;2022-12-04T03:26:23;4.80;1.00
11536;DHT22;5824;49.336;8.652;2022-12-04T03:29:25;4.80;1.00
11536;DHT22;5824;49.336;8.652;2022-12-04T03:32:05;4.80;1.00
11536;DHT22;5824;49.336;8.652;2022-12-04T03:40:38;4.80;1.00
11536;DHT22;5824;49.336;8.652;2022-12-04T03:46:14;4.80;1.00
11536;DHT22;5824;49.336;8.652;2022-12-04T03:51:42;4.80;1.00
11536;DHT22;5824;49.336;8.652;2022-12-04T03:54:24;4.80;1.00
11536;DHT22;5824;49.336;8.652;2022-12-04T03:57:02;4.80;1.00
11536;DHT22;5824;49.336;8.652;2022-12-04T03:59:38;4.80;1.00
11536;DHT22;5824;49.336;8.652;2022-12-04T04:02:07;4.80;1.00
11536;DHT22;5824;49.336;8.652;2022-12-04T04:04:36;4.80;1.00
11536;DHT22;5824;49.336;8.652;2022-12-04T04:07:10;4.90;1.00
11536;DHT22;5824;49.336;8.652;2022-12-04T04:09:40;4.90;1.00
11536;DHT22;5824;49.336;8.652;2022-12-04T04:12:10;4.80;1.00
11536;DHT22;5824;49.336;8.652;2022-12-04T04:14:38;4.80;1.00
11536;DHT22;5824;49.336;8.652;2022-12-04T04:17:29;4.80;1.00
11536;DHT22;5824;49.336;8.652;2022-12-04T04:20:25;4.90;1.00
11536;DHT22;5824;49.336;8.652;2022-12-04T04:23:11;4.80;1.00
11536;DHT22;5824;49.336;8.652;2022-12-04T04:25:57;4.90;1.00
11536;DHT22;5824;49.336;8.652;2022-12-04T04:30:53;4.90;1.00
11536;DHT22;5824;49.336;8.652;2022-12-04T04:33:20;4.90;1.00
11536;DHT22;5824;49.336;8.652;2022-12-04T04:36:01;4.90;1.00
11536;DHT22;5824;49.336;8.652;2022-12-04T04:38:38;4.90;1.00
11536;DHT22;5824;49.336;8.652;2022-12-04T04:41:14;5.00;1.00
11536;DHT22;5824;49.336;8.652;2022-12-04T04:44:16;5.00;1.00
11536;DHT22;5824;49.336;8.652;2022-12-04T04:46:49;5.00;1.00
11536;DHT22;5824;49.336;8.652;2022-12-04T04:49:18;5.00;1.00
11536;DHT22;5824;49.336;8.652;2022-12-04T04:51:45;5.00;1.00
11536;DHT22;5824;49.336;8.652;2022-12-04T04:54:12;5.00;1.00
11536;DHT22;5824;49.336;8.652;2022-12-04T04:56:41;5.00;1.00
11536;DHT22;5824;49.336;8.652;2022-12-04T04:59:07;5.00;1.00
11536;DHT22;5824;49.336;8.652;2022-12-04T05:01:32;5.00;1.00
11536;DHT22;5824;49.336;8.652;2022-12-04T05:03:58;5.00;1.00
11536;DHT22;5824;49.336;8.652;2022-12-04T05:06:23;5.00;1.00
11536;DHT22;5824;49.336;8.652;2022-12-04T05:08:49;5.00;1.00
11536;DHT22;5824;49.336;8.652;2022-12-04T05:11:15;5.00;1.00
11536;DHT22;5824;49.336;8.652;2022-12-04T05:13:41;5.00;1.00
11536;DHT22;5824;49.336;8.652;2022-12-04T05:16:10;5.10;1.00
11536;DHT22;5824;49.336;8.652;2022-12-04T05:18:36;5.10;1.00
11536;DHT22;5824;49.336;8.652;2022-12-04T05:21:09;5.10;1.00
11536;DHT22;5824;49.336;8.652;2022-12-04T05:23:40;5.10;1.00
11536;DHT22;5824;49.336;8.652;2022-12-04T05:26:06;5.00;1.00
11536;DHT22;5824;49.336;8.652;2022-12-04T05:28:31;4.90;1.00
11536;DHT22;5824;49.336;8.652;2022-12-04T05:30:58;4.80;1.00
11536;DHT22;5824;49.336;8.652;2022-12-04T05:33:24;4.80;1.00
11536;DHT22;5824;49.336;8.652;2022-12-04T05:36:04;4.80;1.00
11536;DHT22;5824;49.336;8.652;2022-12-04T05:38:30;4.80;1.00
11536;DHT22;5824;49.336;8.652;2022-12-04T05:41:00;4.80;1.00
11536;DHT22;5824;49.336;8.652;2022-12-04T05:43:26;4.80;1.00
11536;DHT22;5824;49.336;8.652;2022-12-04T05:45:52;4.80;1.00
11536;DHT22;5824;49.336;8.652;2022-12-04T05:48:18;4.90;1.00
11536;DHT22;5824;49.336;8.652;2022-12-04T05:50:43;4.90;1.00
11536;DHT22;5824;49.336;8.652;2022-12-04T05:53:09;4.90;1.00
11536;DHT22;5824;49.336;8.652;2022-12-04T05:55:35;4.90;1.00
11536;DHT22;5824;49.336;8.652;2022-12-04T05:58:00;4.80;1.00
11536;DHT22;5824;49.336;8.652;2022-12-04T06:00:26;4.90;1.00
11536;DHT22;5824;49.336;8.652;2022-12-04T06:02:52;4.90;1.00
11536;DHT22;5824;49.336;8.652;2022-12-04T06:05:18;4.90;1.00
11536;DHT22;5824;49.336;8.652;2022-12-04T06:07:43;4.80;1.00
11536;DHT22;5824;49.336;8.652;2022-12-04T06:10:09;4.90;1.00
11536;DHT22;5824;49.336;8.652;2022-12-04T06:12:34;4.90;1.00
11536;DHT22;5824;49.336;8.652;2022-12-04T06:15:00;4.90;1.00
11536;DHT22;5824;49.336;8.652;2022-12-04T06:17:26;5.00;1.00
11536;DHT22;5824;49.336;8.652;2022-12-04T06:19:52;4.90;1.00
11536;DHT22;5824;49.336;8.652;2022-12-04T06:22:18;4.90;1.00
11536;DHT22;5824;49.336;8.652;2022-12-04T06:24:44;4.90;1.00
11536;DHT22;5824;49.336;8.652;2022-12-04T06:27:10;4.80;1.00
11536;DHT22;5824;49.336;8.652;2022-12-04T06:29:35;4.80;1.00
11536;DHT22;5824;49.336;8.652;2022-12-04T06:32:01;4.90;1.00
11536;DHT22;5824;49.336;8.652;2022-12-04T06:34:26;4.90;1.00
11536;DHT22;5824;49.336;8.652;2022-12-04T06:36:52;4.90;1.00
11536;DHT22;5824;49.336;8.652;2022-12-04T06:39:17;4.90;1.00
11536;DHT22;5824;49.336;8.652;2022-12-04T06:41:43;4.90;1.00
11536;DHT22;5824;49.336;8.652;2022-12-04T06:44:08;5.00;1.00
11536;DHT22;5824;49.336;8.652;2022-12-04T06:46:34;5.00;1.00
11536;DHT22;5824;49.336;8.652;2022-12-04T06:49:00;5.00;1.00
11536;DHT22;5824;49.336;8.652;2022-12-04T06:51:31;5.10;1.00
11536;DHT22;5824;49.336;8.652;2022-12-04T06:53:58;5.10;1.00
11536;DHT22;5824;49.336;8.652;2022-12-04T06:56:26;5.10;1.00
11536;DHT22;5824;49.336;8.652;2022-12-04T06:58:54;5.10;1.00
11536;DHT22;5824;49.336;8.652;2022-12-04T07:01:22;5.10;1.00
11536;DHT22;5824;49.336;8.652;2022-12-04T07:03:48;5.10;1.00
11536;DHT22;5824;49.336;8.652;2022-12-04T07:06:23;5.00;1.00
11536;DHT22;5824;49.336;8.652;2022-12-04T07:08:54;5.10;1.00
11536;DHT22;5824;49.336;8.652;2022-12-04T07:11:21;4.90;1.00
11536;DHT22;5824;49.336;8.652;2022-12-04T07:13:48;5.10;1.00
11536;DHT22;5824;49.336;8.652;2022-12-04T07:16:15;5.20;1.00
11536;DHT22;5824;49.336;8.652;2022-12-04T07:18:41;5.10;1.00
11536;DHT22;5824;49.336;8.652;2022-12-04T07:21:09;5.20;1.00
11536;DHT22;5824;49.336;8.652;2022-12-04T07:23:35;5.20;1.00
11536;DHT22;5824;49.336;8.652;2022-12-04T07:26:09;5.20;1.00
11536;DHT22;5824;49.336;8.652;2022-12-04T07:28:36;5.10;1.00
11536;DHT22;5824;49.336;8.652;2022-12-04T07:31:07;5.10;1.00
11536;DHT22;5824;49.336;8.652;2022-12-04T07:33:33;5.10;1.00
11536;DHT22;5824;49.336;8.652;2022-12-04T07:36:00;5.00;1.00
11536;DHT22;5824;49.336;8.652;2022-12-04T07:38:27;5.10;1.00
11536;DHT22;5824;49.336;8.652;2022-12-04T07:40:57;5.10;1.00
11536;DHT22;5824;49.336;8.652;2022-12-04T07:43:23;5.10;1.00
11536;DHT22;5824;49.336;8.652;2022-12-04T07:45:49;5.20;1.00
11536;DHT22;5824;49.336;8.652;2022-12-04T07:48:15;5.30;1.00
11536;DHT22;5824;49.336;8.652;2022-12-04T07:50:40;5.30;1.00
11536;DHT22;5824;49.336;8.652;2022-12-04T07:53:05;5.30;1.00
11536;DHT22;5824;49.336;8.652;2022-12-04T07:55:31;5.40;1.00
11536;DHT22;5824;49.336;8.652;2022-12-04T07:57:57;5.40;1.00
11536;DHT22;5824;49.336;8.652;2022-12-04T08:00:22;5.50;1.00
11536;DHT22;5824;49.336;8.652;2022-12-04T08:02:48;5.40;1.00
11536;DHT22;5824;49.336;8.652;2022-12-04T15:21:51;4.10;32.70
11536;DHT22;5824;49.336;8.652;2022-12-04T15:24:17;4.10;34.70
11536;DHT22;5824;49.336;8.652;2022-12-04T15:26:45;4.20;36.20
11536;DHT22;5824;49.336;8.652;2022-12-04T15:29:16;4.40;34.50
11536;DHT22;5824;49.336;8.652;2022-12-04T15:31:46;5.10;34.80
11536;DHT22;5824;49.336;8.652;2022-12-04T15:34:19;5.10;35.10
11536;DHT22;5824;49.336;8.652;2022-12-04T15:36:49;5.10;34.90
11536;DHT22;5824;49.336;8.652;2022-12-04T15:39:21;5.10;35.00
11536;DHT22;5824;49.336;8.652;2022-12-04T15:41:47;5.20;32.90
11536;DHT22;5824;49.336;8.652;2022-12-04T15:44:26;5.20;34.90
11536;DHT22;5824;49.336;8.652;2022-12-04T15:46:54;5.20;35.00
11536;DHT22;5824;49.336;8.652;2022-12-04T15:49:28;5.20;31.90
11536;DHT22;5824;49.336;8.652;2022-12-04T15:52:25;5.30;24.70
11536;DHT22;5824;49.336;8.652;2022-12-04T15:54:56;5.30;25.50
11536;DHT22;5824;49.336;8.652;2022-12-04T15:57:35;5.30;23.80
11536;DHT22;5824;49.336;8.652;2022-12-04T16:00:05;5.30;26.20
11536;DHT22;5824;49.336;8.652;2022-12-04T16:02:34;5.30;21.80
11536;DHT22;5824;49.336;8.652;2022-12-04T16:05:33;5.30;26.30
11536;DHT22;5824;49.336;8.652;2022-12-04T16:08:23;5.30;29.60
11536;DHT22;5824;49.336;8.652;2022-12-04T16:10:57;5.30;30.30
11536;DHT22;5824;49.336;8.652;2022-12-04T16:13:32;5.30;24.40
11536;DHT22;5824;49.336;8.652;2022-12-04T16:15:58;5.30;27.50
11536;DHT22;5824;49.336;8.652;2022-12-04T16:18:25;5.30;35.00
11536;DHT22;5824;49.336;8.652;2022-12-04T16:20:50;5.30;33.00
11536;DHT22;5824;49.336;8.652;2022-12-04T16:23:16;5.30;33.00
11536;DHT22;5824;49.336;8.652;2022-12-04T16:25:41;5.30;30.10
11536;DHT22;5824;49.336;8.652;2022-12-04T16:28:07;5.20;34.90
11536;DHT22;5824;49.336;8.652;2022-12-04T16:30:34;5.10;32.80
11536;DHT22;5824;49.336;8.652;2022-12-04T16:33:00;5.10;32.80
11536;DHT22;5824;49.336;8.652;2022-12-04T16:35:25;5.00;35.00
11536;DHT22;5824;49.336;8.652;2022-12-04T16:37:51;4.90;32.80
11536;DHT22;5824;49.336;8.652;2022-12-04T16:40:17;5.10;35.10
11536;DHT22;5824;49.336;8.652;2022-12-04T16:42:42;5.20;32.90
11536;DHT22;5824;49.336;8.652;2022-12-04T16:47:48;5.20;35.20
11536;DHT22;5824;49.336;8.652;2022-12-04T16:50:14;5.00;32.90
11536;DHT22;5824;49.336;8.652;2022-12-04T16:52:39;5.10;33.10
11536;DHT22;5824;49.336;8.652;2022-12-04T16:55:27;5.10;35.20
11536;DHT22;5824;49.336;8.652;2022-12-04T16:57:55;5.10;35.10
11536;DHT22;5824;49.336;8.652;2022-12-04T17:00:20;4.90;32.80
11536;DHT22;5824;49.336;8.652;2022-12-04T17:02:46;5.00;32.90
11536;DHT22;5824;49.336;8.652;2022-12-04T17:05:27;5.00;39.90
11536;DHT22;5824;49.336;8.652;2022-12-04T17:07:53;5.00;40.40
11536;DHT22;5824;49.336;8.652;2022-12-04T17:10:19;5.00;42.50
11536;DHT22;5824;49.336;8.652;2022-12-04T17:12:45;5.00;38.00
11536;DHT22;5824;49.336;8.652;2022-12-04T17:15:11;5.00;41.90
11536;DHT22;5824;49.336;8.652;2022-12-04T17:17:38;5.00;42.10
11536;DHT22;5824;49.336;8.652;2022-12-04T17:20:11;5.00;44.10
11536;DHT22;5824;49.336;8.652;2022-12-04T17:22:37;5.00;33.30
11536;DHT22;5824;49.336;8.652;2022-12-04T17:25:03;5.00;35.80
11536;DHT22;5824;49.336;8.652;2022-12-04T17:27:29;5.00;41.30
11536;DHT22;5824;49.336;8.652;2022-12-04T17:29:55;5.00;39.90
11536;DHT22;5824;49.336;8.652;2022-12-04T17:32:21;5.00;37.80
11536;DHT22;5824;49.336;8.652;2022-12-04T17:34:46;7.70;42.30
11536;DHT22;5824;49.336;8.652;2022-12-04T17:37:12;5.00;40.50
11536;DHT22;5824;49.336;8.652;2022-12-04T17:39:37;5.00;42.90
11536;DHT22;5824;49.336;8.652;2022-12-04T17:42:03;5.00;35.20
11536;DHT22;5824;49.336;8.652;2022-12-04T17:44:29;5.00;40.10
11536;DHT22;5824;49.336;8.652;2022-12-04T17:46:54;5.00;39.50
11536;DHT22;5824;49.336;8.652;2022-12-04T17:49:20;5.00;40.40
11536;DHT22;5824;49.336;8.652;2022-12-04T17:51:45;5.00;32.70
11536;DHT22;5824;49.336;8.652;2022-12-04T17:54:11;5.00;35.70
11536;DHT22;5824;49.336;8.652;2022-12-04T17:56:37;5.00;39.60
11536;DHT22;5824;49.336;8.652;2022-12-04T17:59:03;5.10;39.90
11536;DHT22;5824;49.336;8.652;2022-12-04T18:01:29;5.10;39.20
11536;DHT22;5824;49.336;8.652;2022-12-04T18:03:57;5.10;42.10
11536;DHT22;5824;49.336;8.652;2022-12-04T18:06:32;5.10;39.30
11536;DHT22;5824;49.336;8.652;2022-12-04T18:08:57;5.10;40.70
11536;DHT22;5824;49.336;8.652;2022-12-04T18:11:26;5.00;36.20
11536;DHT22;5824;49.336;8.652;2022-12-04T18:13:57;5.00;39.80
11536;DHT22;5824;49.336;8.652;2022-12-04T18:16:23;4.90;41.30
11536;DHT22;5824;49.336;8.652;2022-12-04T18:18:52;5.10;42.10
11536;DHT22;5824;49.336;8.652;2022-12-04T18:21:18;5.00;32.80
11536;DHT22;5824;49.336;8.652;2022-12-04T18:23:43;4.90;32.80
11536;DHT22;5824;49.336;8.652;2022-12-04T18:26:21;5.00;35.90
11536;DHT22;5824;49.336;8.652;2022-12-04T18:28:47;5.00;45.40
11536;DHT22;5824;49.336;8.652;2022-12-04T18:33:41;5.00;40.80
11536;DHT22;5824;49.336;8.652;2022-12-04T18:36:11;5.00;39.80
11536;DHT22;5824;49.336;8.652;2022-12-04T18:41:05;5.00;37.70
11536;DHT22;5824;49.336;8.652;2022-12-04T18:43:36;5.00;41.30
11536;DHT22;5824;49.336;8.652;2022-12-04T18:46:04;5.00;41.70
11536;DHT22;5824;49.336;8.652;2022-12-04T18:48:30;5.00;41.90
11536;DHT22;5824;49.336;8.652;2022-12-04T18:50:56;5.00;40.60
11536;DHT22;5824;49.336;8.652;2022-12-04T18:53:22;4.90;42.00
11536;DHT22;5824;49.336;8.652;2022-12-04T18:55:50;4.90;43.30
11536;DHT22;5824;49.336;8.652;2022-12-04T18:58:16;4.90;45.10
11536;DHT22;5824;49.336;8.652;2022-12-04T19:00:42;4.80;45.10
11536;DHT22;5824;49.336;8.652;2022-12-04T19:03:08;4.90;44.50
11536;DHT22;5824;49.336;8.652;2022-12-04T19:05:33;4.90;48.20
11536;DHT22;5824;49.336;8.652;2022-12-04T19:08:00;4.90;46.20
11536;DHT22;5824;49.336;8.652;2022-12-04T19:10:26;4.80;50.00
11536;DHT22;5824;49.336;8.652;2022-12-04T19:12:52;4.90;48.50
11536;DHT22;5824;49.336;8.652;2022-12-04T19:15:18;4.90;48.80
11536;DHT22;5824;49.336;8.652;2022-12-04T19:17:44;4.90;51.60
11536;DHT22;5824;49.336;8.652;2022-12-04T19:20:10;4.90;52.00
11536;DHT22;5824;49.336;8.652;2022-12-04T19:22:36;4.90;43.60
11536;DHT22;5824;49.336;8.652;2022-12-04T19:25:04;4.80;50.20
11536;DHT22;5824;49.336;8.652;2022-12-04T19:27:30;4.80;48.90
11536;DHT22;5824;49.336;8.652;2022-12-04T19:29:56;4.80;51.80
11536;DHT22;5824;49.336;8.652;2022-12-04T19:32:21;4.90;52.60
11536;DHT22;5824;49.336;8.652;2022-12-04T19:34:48;4.90;48.70
11536;DHT22;5824;49.336;8.652;2022-12-04T19:37:14;4.90;51.00
11536;DHT22;5824;49.336;8.652;2022-12-04T19:39:40;4.80;50.90
11536;DHT22;5824;49.336;8.652;2022-12-04T19:42:06;4.80;51.50
11536;DHT22;5824;49.336;8.652;2022-12-04T19:44:32;4.90;51.80
11536;DHT22;5824;49.336;8.652;2022-12-04T19:46:57;4.90;56.60
11536;DHT22;5824;49.336;8.652;2022-12-04T19:49:23;4.80;49.40
11536;DHT22;5824;49.336;8.652;2022-12-04T19:51:49;4.80;52.30
11536;DHT22;5824;49.336;8.652;2022-12-04T19:54:15;4.80;52.60
11536;DHT22;5824;49.336;8.652;2022-12-04T19:56:40;4.90;56.50
11536;DHT22;5824;49.336;8.652;2022-12-04T19:59:07;4.80;56.00
11536;DHT22;5824;49.336;8.652;2022-12-04T20:01:34;4.80;55.10
11536;DHT22;5824;49.336;8.652;2022-12-04T20:04:02;4.80;55.20
11536;DHT22;5824;49.336;8.652;2022-12-04T20:06:29;4.90;60.20
11536;DHT22;5824;49.336;8.652;2022-12-04T20:08:57;4.90;56.20
11536;DHT22;5824;49.336;8.652;2022-12-04T20:11:25;4.90;54.80
11536;DHT22;5824;49.336;8.652;2022-12-04T20:13:52;4.80;55.50
11536;DHT22;5824;49.336;8.652;2022-12-04T20:16:20;4.80;56.50
11536;DHT22;5824;49.336;8.652;2022-12-04T20:18:46;4.80;53.00
11536;DHT22;5824;49.336;8.652;2022-12-04T20:21:12;4.80;58.80
11536;DHT22;5824;49.336;8.652;2022-12-04T20:23:40;4.80;61.50
11536;DHT22;5824;49.336;8.652;2022-12-04T20:26:07;4.80;62.60
11536;DHT22;5824;49.336;8.652;2022-12-04T20:28:33;4.90;63.00
11536;DHT22;5824;49.336;8.652;2022-12-04T20:30:59;4.90;60.70
11536;DHT22;5824;49.336;8.652;2022-12-04T20:33:25;4.90;59.00
11536;DHT22;5824;49.336;8.652;2022-12-04T20:35:51;4.90;61.00
11536;DHT22;5824;49.336;8.652;2022-12-04T20:38:16;4.80;58.80
11536;DHT22;5824;49.336;8.652;2022-12-04T20:40:42;4.80;60.30
11536;DHT22;5824;49.336;8.652;2022-12-04T20:43:07;4.70;60.60
11536;DHT22;5824;49.336;8.652;2022-12-04T20:45:33;4.70;63.90
11536;DHT22;5824;49.336;8.652;2022-12-04T20:47:58;4.70;68.10
11536;DHT22;5824;49.336;8.652;2022-12-04T20:50:24;4.80;69.90
11536;DHT22;5824;49.336;8.652;2022-12-04T20:52:50;4.80;71.30
11536;DHT22;5824;49.336;8.652;2022-12-04T20:55:15;4.80;65.40
11536;DHT22;5824;49.336;8.652;2022-12-04T20:57:41;4.70;68.20
11536;DHT22;5824;49.336;8.652;2022-12-04T21:00:07;4.80;70.90
11536;DHT22;5824;49.336;8.652;2022-12-04T21:02:33;4.80;73.00
11536;DHT22;5824;49.336;8.652;2022-12-04T21:04:59;4.90;71.10
11536;DHT22;5824;49.336;8.652;2022-12-04T21:07:24;4.90;73.00
11536;DHT22;5824;49.336;8.652;2022-12-04T21:09:51;4.90;68.60
11536;DHT22;5824;49.336;8.652;2022-12-04T21:12:16;4.80;68.30
11536;DHT22;5824;49.336;8.652;2022-12-04T21:15:01;4.80;71.30
11536;DHT22;5824;49.336;8.652;2022-12-04T21:17:46;4.80;74.20
11536;DHT22;5824;49.336;8.652;2022-12-04T21:20:11;4.80;70.90
11536;DHT22;5824;49.336;8.652;2022-12-04T21:22:37;4.80;71.50
11536;DHT22;5824;49.336;8.652;2022-12-04T21:25:03;4.80;72.70
11536;DHT22;5824;49.336;8.652;2022-12-04T21:27:29;4.90;74.10
11536;DHT22;5824;49.336;8.652;2022-12-04T21:29:54;4.80;71.20
11536;DHT22;5824;49.336;8.652;2022-12-04T21:32:20;4.80;69.30
11536;DHT22;5824;49.336;8.652;2022-12-04T21:34:46;4.70;70.20
11536;DHT22;5824;49.336;8.652;2022-12-04T21:37:12;5.50;75.60
11536;DHT22;5824;49.336;8.652;2022-12-04T21:39:37;4.70;72.90
11536;DHT22;5824;49.336;8.652;2022-12-04T21:42:03;4.60;72.10
11536;DHT22;5824;49.336;8.652;2022-12-04T21:44:47;4.60;71.70
11536;DHT22;5824;49.336;8.652;2022-12-04T21:47:13;4.60;77.00
11536;DHT22;5824;49.336;8.652;2022-12-04T21:49:38;4.70;81.90
11536;DHT22;5824;49.336;8.652;2022-12-04T21:52:04;4.70;81.90
11536;DHT22;5824;49.336;8.652;2022-12-04T21:54:29;4.80;78.40
11536;DHT22;5824;49.336;8.652;2022-12-04T21:56:56;4.80;82.60
11536;DHT22;5824;49.336;8.652;2022-12-04T21:59:22;4.80;77.30
11536;DHT22;5824;49.336;8.652;2022-12-04T22:01:48;4.80;81.10
11536;DHT22;5824;49.336;8.652;2022-12-04T22:04:14;4.80;73.80
11536;DHT22;5824;49.336;8.652;2022-12-04T22:06:40;4.70;79.70
11536;DHT22;5824;49.336;8.652;2022-12-04T22:09:07;4.80;79.70
11536;DHT22;5824;49.336;8.652;2022-12-04T22:11:34;4.70;77.60
11536;DHT22;5824;49.336;8.652;2022-12-04T22:13:59;4.70;83.50
11536;DHT22;5824;49.336;8.652;2022-12-04T22:16:25;4.70;88.00
11536;DHT22;5824;49.336;8.652;2022-12-04T22:18:55;4.80;90.00
11536;DHT22;5824;49.336;8.652;2022-12-04T22:21:21;4.80;82.80
11536;DHT22;5824;49.336;8.652;2022-12-04T22:23:47;4.80;84.60
11536;DHT22;5824;49.336;8.652;2022-12-04T22:26:15;4.80;80.90
11536;DHT22;5824;49.336;8.652;2022-12-04T22:28:42;4.70;86.30
11536;DHT22;5824;49.336;8.652;2022-12-04T22:31:12;4.70;86.80
11536;DHT22;5824;49.336;8.652;2022-12-04T22:33:38;4.70;74.90
11536;DHT22;5824;49.336;8.652;2022-12-04T22:36:06;4.60;79.70
11536;DHT22;5824;49.336;8.652;2022-12-04T22:38:33;4.60;90.30
11536;DHT22;5824;49.336;8.652;2022-12-04T22:41:00;4.80;92.40
11536;DHT22;5824;49.336;8.652;2022-12-04T22:43:27;4.80;79.80
11536;DHT22;5824;49.336;8.652;2022-12-04T22:45:53;4.80;82.80
11536;DHT22;5824;49.336;8.652;2022-12-04T22:48:19;4.70;82.20
11536;DHT22;5824;49.336;8.652;2022-12-04T22:50:44;4.60;85.00
11536;DHT22;5824;49.336;8.652;2022-12-04T22:53:10;4.60;90.70
11536;DHT22;5824;49.336;8.652;2022-12-04T22:55:35;4.70;85.70
11536;DHT22;5824;49.336;8.652;2022-12-04T22:58:01;4.70;90.70
11536;DHT22;5824;49.336;8.652;2022-12-04T23:00:26;4.70;87.10
11536;DHT22;5824;49.336;8.652;2022-12-04T23:02:52;4.70;88.80
11536;DHT22;5824;49.336;8.652;2022-12-04T23:05:18;4.60;88.20
11536;DHT22;5824;49.336;8.652;2022-12-04T23:07:43;4.60;92.10
11536;DHT22;5824;49.336;8.652;2022-12-04T23:10:09;4.70;91.80
11536;DHT22;5824;49.336;8.652;2022-12-04T23:12:34;4.60;92.30
11536;DHT22;5824;49.336;8.652;2022-12-04T23:15:00;4.60;87.90
11536;DHT22;5824;49.336;8.652;2022-12-04T23:17:25;4.60;92.10
11536;DHT22;5824;49.336;8.652;2022-12-04T23:19:51;4.60;94.80
11536;DHT22;5824;49.336;8.652;2022-12-04T23:22:16;4.60;90.30
11536;DHT22;5824;49.336;8.652;2022-12-04T23:24:42;4.60;92.00
11536;DHT22;5824;49.336;8.652;2022-12-04T23:27:07;4.60;92.60
11536;DHT22;5824;49.336;8.652;2022-12-04T23:29:33;4.50;94.00
11536;DHT22;5824;49.336;8.652;2022-12-04T23:31:58;4.60;96.50
11536;DHT22;5824;49.336;8.652;2022-12-04T23:34:24;4.60;91.60
11536;DHT22;5824;49.336;8.652;2022-12-04T23:36:49;4.60;94.30
11536;DHT22;5824;49.336;8.652;2022-12-04T23:39:15;4.60;94.80
11536;DHT22;5824;49.336;8.652;2022-12-04T23:41:40;4.60;97.20
11536;DHT22;5824;49.336;8.652;2022-12-04T23:44:06;4.70;96.00
11536;DHT22;5824;49.336;8.652;2022-12-04T23:46:32;4.70;97.20
11536;DHT22;5824;49.336;8.652;2022-12-04T23:48:58;4.70;95.30
11536;DHT22;5824;49.336;8.652;2022-12-04T23:51:25;4.70;97.20
11536;DHT22;5824;49.336;8.652;2022-12-04T23:53:51;4.70;96.10
11536;DHT22;5824;49.336;8.652;2022-12-04T23:56:24;4.70;96.30
11536;DHT22;5824;49.336;8.652;2022-12-04T23:58:52;4.70;97.20
